Rock Springs, WY

4:10 AM MDT on August 29, 2015 (GMT -0600)
College Hill | | Change Station
CLOSE
Current Station
Personal Weather Station
Location: Rock Springs, WY
Elevation: 6488 ft
Nearby Weather Stations
Active Advisory: Fire Weather Warning

Elev 6488 ft 41.59 °N, 109.23 °W | Updated 39 seconds ago

Clear
Clear
54.1 °F
Feels Like 54.1 °F
N
0.0
Wind Variable Wind from East
Gusts 0.0 mph

Today
High -- | Low -- °F
--% Chance of Precip.
Yesterday
High -- | Low -- °F
Precip. -- in
6:39 AM 7:55 PM
Full, 100% visible
Pressure 30.04 in
Visibility 10.0 miles
Clouds Clear
Dew Point 34 °F
Humidity 47%
Rainfall 0.00 in
Snow Depth Not available.
UV 0 out of 12
Pollen 9.50 out of 12
Air Quality Not available.
Flu Activity Not available.
METAR KRKS 290954Z AUTO 16008KT 10SM CLR 15/M03 A3030 RMK AO2 SLP171 T01501028
Pressure 30.04 in
Visibility 10.0 miles
Clouds Clear
Dew Point 34 °F
Humidity 47%
Rainfall 0.00 in
Snow Depth Not available.
UV 0 out of 12
Pollen 9.50 out of 12
Air Quality Not available.
Flu Activity Not available.
METAR KRKS 290954Z AUTO 16008KT 10SM CLR 15/M03 A3030 RMK AO2 SLP171 T01501028

10-Day Weather Forecast

×

Almanac

Astronomy

Aug. 29, 2015 Rise Set
Actual Time
Civil Twilight
Nautical Twilight
Astronomical Twilight
Moon
Length of Visible Light
Length of Day
Tomorrow will be .
, % of the Moon is Illuminated

Today's Extremes

State Highs State Lows

Community

WunderPhotos

Upload Photos

1,850,633 photos uploaded!

WunderBlogs® & News

Nearby

Air Quality

  Air Quality AQ Index Pollutant
Not available.

Snow Depth

Station Depth Elevation

Earthquake Activity

City Distance Mag. Time & Date
Minimum magnitude displayed is 2.5.

Coastal Water Temperatures

Place Temperature

Stations

Nearby Weather Stations

Station Location Temp. Windchill Dew Point Humidity Wind Precip. Elev Updated Type
                   
Fire Weather Warning
Statement as of 2:30 AM MDT on August 29, 2015

... Red flag warning remains in effect from 11 am this morning to
9 PM MDT this evening for strong wind... low humidity and a Haines
index of 6...

* wind... southwest 15 to 20 mph with gusts to 35 mph in zone 277
and in more exposed and wind prone areas of 279... becoming
more widespread after 1500

* humidity... 10 to 15 percent.

* Haines index... 6

* impacts... any fires that develop will likely spread rapidly.
Outdoor burning is not recommended.

Precautionary/preparedness actions...

A red flag warning means that critical fire weather conditions
are either occurring now... or will shortly. A combination of
strong winds... low relative humidity... and warm temperatures will
create extreme fire behavior.